Time;durP1;ratioP1;P1;durP2;ratioP2;P2;SDS_P1;SDS_P2;PMS_P1;PMS_P2;Temp;Humidity;BMP_temperature;BMP_pressure;BME280_temperature;BME280_humidity;BME280_pressure;Samples;Min_cycle;Max_cycle;Signal;HPM_P1;HPM_P2
2024/01/21 00:00:55;;;;;;;1999.90;999.90;;;;;;;-2.50;82.00;97418.22;5115070;28;20493;-67
2024/01/21 00:03:21;;;;;;;1999.90;999.90;;;;;;;-2.41;81.45;97427.88;5115070;28;20130;-64
2024/01/21 00:05:49;;;;;;;1999.90;999.90;;;;;;;-2.40;81.25;97424.50;5115170;28;20047;-67
2024/01/21 00:08:16;;;;;;;1999.90;999.90;;;;;;;-2.42;80.88;97418.44;5114198;28;20079;-68
2024/01/21 00:10:44;;;;;;;1999.90;999.90;;;;;;;-2.51;81.40;97425.88;5115128;28;20108;-67
2024/01/21 00:13:11;;;;;;;1999.90;999.90;;;;;;;-2.45;81.49;97420.94;5114893;28;20101;-67
2024/01/21 00:15:38;;;;;;;1999.90;999.90;;;;;;;-2.43;81.55;97427.84;5114665;28;20500;-65
2024/01/21 00:18:05;;;;;;;1999.90;999.90;;;;;;;-2.46;81.45;97425.19;5114930;28;20048;-64
2024/01/21 00:20:32;;;;;;;1999.90;999.90;;;;;;;-2.52;81.68;97421.59;5114917;28;20146;-65
2024/01/21 00:22:59;;;;;;;1999.90;999.90;;;;;;;-2.52;82.04;97427.59;5114750;28;20051;-64
2024/01/21 00:25:26;;;;;;;1999.90;999.90;;;;;;;-2.47;82.00;97428.56;5114928;28;20074;-67
2024/01/21 00:27:55;;;;;;;1999.90;999.90;;;;;;;-2.45;81.79;97420.94;5114657;28;20094;-66
2024/01/21 00:30:22;;;;;;;1999.90;999.90;;;;;;;-2.45;81.77;97423.50;5114702;28;20044;-70
2024/01/21 00:32:49;;;;;;;1999.90;999.90;;;;;;;-2.42;81.98;97427.03;5114578;28;20122;-67
2024/01/21 00:35:16;;;;;;;1999.90;999.90;;;;;;;-2.44;81.66;97428.66;5114280;28;20409;-67
2024/01/21 00:37:43;;;;;;;1999.90;999.90;;;;;;;-2.43;81.14;97427.84;5114692;28;20143;-67
2024/01/21 00:40:10;;;;;;;1999.90;999.90;;;;;;;-2.37;81.02;97426.28;5114464;28;20112;-65
2024/01/21 00:42:38;;;;;;;1999.90;999.90;;;;;;;-2.29;80.91;97430.78;5114765;28;20048;-65
2024/01/21 00:45:07;;;;;;;1999.90;999.90;;;;;;;-2.19;80.94;97442.16;5114280;28;20105;-66
2024/01/21 00:47:34;;;;;;;1999.90;999.90;;;;;;;-2.14;81.01;97439.69;5114341;28;20047;-67
2024/01/21 00:50:03;;;;;;;1999.90;999.90;;;;;;;-2.08;80.71;97437.31;5114133;28;20052;-64
2024/01/21 00:52:30;;;;;;;1999.90;999.90;;;;;;;-2.04;80.48;97440.84;5113986;28;20051;-65
2024/01/21 00:54:57;;;;;;;1999.90;999.90;;;;;;;-1.95;80.31;97437.63;5114167;28;20497;-66
2024/01/21 00:57:24;;;;;;;1999.90;999.90;;;;;;;-1.88;80.97;97436.09;5113985;28;20554;-66
2024/01/21 00:59:51;;;;;;;1999.90;999.90;;;;;;;-1.89;80.10;97436.94;5114248;28;20043;-67
2024/01/21 01:02:19;;;;;;;1999.90;999.90;;;;;;;-2.04;78.79;97443.41;5113979;28;20047;-63
2024/01/21 01:04:47;;;;;;;1999.90;999.90;;;;;;;-2.16;76.85;97436.25;5113918;28;20044;-66
2024/01/21 01:07:14;;;;;;;1999.90;999.90;;;;;;;-2.14;77.03;97444.84;5113776;28;20047;-68
2024/01/21 01:09:42;;;;;;;1999.90;999.90;;;;;;;-2.21;75.70;97437.81;5113848;28;20489;-65
2024/01/21 01:12:09;;;;;;;1999.90;999.90;;;;;;;-2.27;75.98;97433.38;5113964;28;20050;-65
2024/01/21 01:14:36;;;;;;;1999.90;999.90;;;;;;;-2.22;75.38;97434.41;5113684;28;20427;-66
2024/01/21 01:17:03;;;;;;;1999.90;999.90;;;;;;;-2.23;74.19;97434.34;5113804;28;20055;-69
2024/01/21 01:19:31;;;;;;;1999.90;999.90;;;;;;;-2.24;74.58;97435.16;5113462;28;20054;-65
2024/01/21 01:21:58;;;;;;;1999.90;999.90;;;;;;;-2.29;74.48;97433.34;5113866;28;20149;-68
2024/01/21 01:24:25;;;;;;;1999.90;999.90;;;;;;;-2.28;74.29;97437.63;5113703;28;20121;-68
2024/01/21 01:26:52;;;;;;;1999.90;999.90;;;;;;;-2.24;74.08;97430.91;5113875;28;20073;-66
2024/01/21 01:29:19;;;;;;;1999.90;999.90;;;;;;;-2.21;72.80;97437.81;5113708;28;20509;-67
2024/01/21 01:31:46;;;;;;;1999.90;999.90;;;;;;;-2.29;73.74;97441.03;5113548;28;20043;-68
2024/01/21 01:34:13;;;;;;;1999.90;999.90;;;;;;;-2.31;73.02;97440.13;5113756;28;20055;-65
2024/01/21 01:36:42;;;;;;;1999.90;999.90;;;;;;;-2.30;72.70;97444.44;5113772;28;20058;-69
2024/01/21 01:39:09;;;;;;;1999.90;999.90;;;;;;;-2.37;72.70;97444.22;5113509;28;20051;-63
2024/01/21 01:41:36;;;;;;;1999.90;999.90;;;;;;;-2.43;72.53;97444.91;5113546;28;20058;-69
2024/01/21 01:44:04;;;;;;;1999.90;999.90;;;;;;;-2.43;73.36;97445.78;5113409;28;20533;-68
2024/01/21 01:46:31;;;;;;;1999.90;999.90;;;;;;;-2.36;73.21;97448.50;5113418;28;20075;-67
2024/01/21 01:48:59;;;;;;;1999.90;999.90;;;;;;;-2.29;72.76;97448.72;5113371;28;20043;-66
2024/01/21 01:51:27;;;;;;;1999.90;999.90;;;;;;;-2.28;72.04;97453.00;5113422;28;20119;-67
2024/01/21 01:53:56;;;;;;;1999.90;999.90;;;;;;;-2.25;72.26;97449.69;5113087;28;20058;-66
2024/01/21 01:56:23;;;;;;;1999.90;999.90;;;;;;;-2.27;72.81;97461.59;5113404;28;20051;-67
2024/01/21 01:58:52;;;;;;;1999.90;999.90;;;;;;;-2.25;72.61;97456.50;5113497;28;20074;-68
2024/01/21 02:01:19;;;;;;;1999.90;999.90;;;;;;;-2.26;72.11;97460.75;5113285;28;20104;-64
2024/01/21 02:03:47;;;;;;;1999.90;999.90;;;;;;;-2.23;71.74;97470.25;5113213;28;20051;-64
2024/01/21 02:06:13;;;;;;;1999.90;999.90;;;;;;;-2.33;70.68;97467.41;5113599;28;20409;-67
2024/01/21 02:08:40;;;;;;;1999.90;999.90;;;;;;;-2.45;71.33;97470.50;5113465;28;20232;-67
2024/01/21 02:11:09;;;;;;;1999.90;999.90;;;;;;;-2.49;71.47;97470.38;5113359;28;20505;-65
2024/01/21 02:13:36;;;;;;;1999.90;999.90;;;;;;;-2.49;72.50;97462.69;5113300;28;20097;-65
2024/01/21 02:16:03;;;;;;;1999.90;999.90;;;;;;;-2.47;72.49;97471.28;5113043;28;20455;-62
2024/01/21 02:18:31;;;;;;;1999.90;999.90;;;;;;;-2.47;72.22;97464.44;5113146;28;20044;-67
2024/01/21 02:20:58;;;;;;;1999.90;999.90;;;;;;;-2.47;72.27;97459.31;5113005;28;20062;-66
2024/01/21 02:23:27;;;;;;;1999.90;999.90;;;;;;;-2.41;72.21;97469.75;5113123;28;20564;-63
2024/01/21 02:25:54;;;;;;;1999.90;999.90;;;;;;;-2.45;73.04;97467.94;5113155;28;20058;-65
2024/01/21 02:28:21;;;;;;;1999.90;999.90;;;;;;;-2.58;72.95;97465.84;5113096;28;20113;-66
2024/01/21 02:30:48;;;;;;;1999.90;999.90;;;;;;;-2.56;73.18;97466.78;5114821;28;20492;-68
2024/01/21 02:33:15;;;;;;;1999.90;999.90;;;;;;;-2.51;71.80;97472.00;5116895;28;20048;-65
2024/01/21 02:35:42;;;;;;;1999.90;999.90;;;;;;;-2.51;71.61;97467.75;5116927;28;20055;-67
2024/01/21 02:38:09;;;;;;;1999.90;999.90;;;;;;;-2.44;72.87;97464.53;5116644;28;20090;-63
2024/01/21 02:40:38;;;;;;;1999.90;999.90;;;;;;;-2.36;74.34;97463.88;5116758;28;20053;-68
2024/01/21 02:43:07;;;;;;;1999.90;999.90;;;;;;;-2.31;74.13;97472.59;5116750;28;20477;-67
2024/01/21 02:45:34;;;;;;;1999.90;999.90;;;;;;;-2.28;73.34;97480.38;5116661;28;20344;-70
2024/01/21 02:48:01;;;;;;;1999.90;999.90;;;;;;;-2.23;73.72;97477.94;5116578;28;20044;-65
2024/01/21 02:50:28;;;;;;;1999.90;999.90;;;;;;;-2.22;72.92;97471.97;5116552;28;20044;-66
2024/01/21 02:52:56;;;;;;;1999.90;999.90;;;;;;;-2.19;73.31;97477.19;5116389;28;20131;-68
2024/01/21 02:55:23;;;;;;;1999.90;999.90;;;;;;;-2.18;74.77;97479.78;5116757;28;20051;-67
2024/01/21 02:57:51;;;;;;;1999.90;999.90;;;;;;;-2.20;73.80;97478.88;5116381;28;20055;-66
2024/01/21 03:00:19;;;;;;;1999.90;999.90;;;;;;;-2.25;73.61;97475.31;5116458;28;20117;-68
2024/01/21 03:02:47;;;;;;;1999.90;999.90;;;;;;;-2.22;73.49;97474.53;5116221;28;20083;-64
2024/01/21 03:05:14;;;;;;;1999.90;999.90;;;;;;;-2.23;73.39;97476.22;5116498;28;20073;-67
2024/01/21 03:07:41;;;;;;;1999.90;999.90;;;;;;;-2.26;73.84;97470.16;5116313;28;20055;-65
2024/01/21 03:10:08;;;;;;;1999.90;999.90;;;;;;;-2.29;74.17;97479.50;5116153;28;20561;-68
2024/01/21 03:12:36;;;;;;;1999.90;999.90;;;;;;;-2.31;74.03;97476.03;5116230;28;20059;-66
2024/01/21 03:15:05;;;;;;;1999.90;999.90;;;;;;;-2.40;74.85;97478.31;5116121;28;20052;-68
2024/01/21 03:17:32;;;;;;;1999.90;999.90;;;;;;;-2.48;74.98;97480.66;5116346;28;20051;-66
2024/01/21 03:19:59;;;;;;;1999.90;999.90;;;;;;;-2.50;75.40;97486.56;5115980;28;20122;-65
2024/01/21 03:22:27;;;;;;;1999.90;999.90;;;;;;;-2.55;75.49;97484.75;5115830;28;20142;-69
2024/01/21 03:24:54;;;;;;;1999.90;999.90;;;;;;;-2.61;75.30;97486.25;5115997;28;20079;-65
2024/01/21 03:27:21;;;;;;;1999.90;999.90;;;;;;;-2.70;75.00;97492.84;5115878;28;20106;-66
2024/01/21 03:29:48;;;;;;;1999.90;999.90;;;;;;;-2.74;74.29;97491.00;5115941;28;20052;-68
2024/01/21 03:32:17;;;;;;;1999.90;999.90;;;;;;;-2.75;73.66;97490.97;5115973;28;20059;-65
2024/01/21 03:34:44;;;;;;;1999.90;999.90;;;;;;;-2.86;72.60;97495.78;5115763;28;20275;-67
2024/01/21 03:37:11;;;;;;;1999.90;999.90;;;;;;;-2.92;72.49;97487.06;5115740;28;20051;-65
2024/01/21 03:39:38;;;;;;;1999.90;999.90;;;;;;;-2.90;72.83;97488.78;5115517;28;20490;-64
2024/01/21 03:42:06;;;;;;;1999.90;999.90;;;;;;;-2.88;72.17;97487.16;5115369;28;20100;-68
2024/01/21 03:44:33;;;;;;;1999.90;999.90;;;;;;;-2.88;72.97;97493.16;5115537;28;20436;-66
2024/01/21 03:47:00;;;;;;;1999.90;999.90;;;;;;;-2.84;72.58;97489.00;5115402;28;20142;-68
2024/01/21 03:49:29;;;;;;;1999.90;999.90;;;;;;;-2.79;72.45;97497.69;5115458;28;20552;-66
2024/01/21 03:51:56;;;;;;;1999.90;999.90;;;;;;;-2.73;72.26;97499.56;5115229;28;20109;-64
2024/01/21 03:54:23;;;;;;;1999.90;999.90;;;;;;;-2.71;73.22;97498.78;5115576;28;20047;-65
2024/01/21 03:56:50;;;;;;;1999.90;999.90;;;;;;;-2.72;73.60;97489.38;5115367;28;20058;-67
2024/01/21 03:59:17;;;;;;;1999.90;999.90;;;;;;;-2.69;74.17;97491.16;5115315;28;20074;-65
2024/01/21 04:01:44;;;;;;;1999.90;999.90;;;;;;;-2.64;74.54;97492.16;5115069;28;20538;-66
2024/01/21 04:04:13;;;;;;;1999.90;999.90;;;;;;;-2.63;74.86;97493.03;5115378;28;20050;-65
2024/01/21 04:06:42;;;;;;;1999.90;999.90;;;;;;;-2.68;74.98;97495.47;5115429;28;20122;-65
2024/01/21 04:09:09;;;;;;;1999.90;999.90;;;;;;;-2.71;74.83;97498.78;5115132;28;20093;-67
2024/01/21 04:11:37;;;;;;;1999.90;999.90;;;;;;;-2.73;74.91;97503.00;5115119;28;20082;-65
2024/01/21 04:14:04;;;;;;;1999.90;999.90;;;;;;;-2.76;74.68;97502.91;5115171;28;20072;-66
2024/01/21 04:16:31;;;;;;;1999.90;999.90;;;;;;;-2.80;74.75;97511.34;5114787;28;20055;-68
2024/01/21 04:18:58;;;;;;;1999.90;999.90;;;;;;;-2.86;74.33;97503.47;5114894;28;20485;-67
2024/01/21 04:21:25;;;;;;;1999.90;999.90;;;;;;;-2.99;74.65;97505.63;5114867;28;20075;-63
2024/01/21 04:23:54;;;;;;;1999.90;999.90;;;;;;;-3.21;74.78;97504.09;5114681;28;20508;-67
2024/01/21 04:26:21;;;;;;;1999.90;999.90;;;;;;;-3.38;74.56;97506.97;5114755;28;20134;-67
2024/01/21 04:28:48;;;;;;;1999.90;999.90;;;;;;;-3.39;74.86;97515.47;5114536;28;20083;-67
2024/01/21 04:31:15;;;;;;;1999.90;999.90;;;;;;;-3.50;74.78;97516.78;5114669;28;20082;-64
2024/01/21 04:33:42;;;;;;;1999.90;999.90;;;;;;;-3.60;74.86;97506.28;5114787;28;20104;-66
2024/01/21 04:36:09;;;;;;;1999.90;999.90;;;;;;;-3.77;75.31;97510.78;5114510;28;20048;-64
2024/01/21 04:38:36;;;;;;;1999.90;999.90;;;;;;;-3.94;75.37;97511.06;5114469;28;20074;-67
2024/01/21 04:41:05;;;;;;;1999.90;999.90;;;;;;;-4.01;75.99;97519.34;5114491;28;20142;-66
2024/01/21 04:43:32;;;;;;;1999.90;999.90;;;;;;;-4.07;76.19;97519.13;5114569;28;20401;-66
2024/01/21 04:45:59;;;;;;;1999.90;999.90;;;;;;;-4.08;76.81;97523.41;5114346;28;20044;-65
2024/01/21 04:48:26;;;;;;;1999.90;999.90;;;;;;;-4.03;76.24;97525.25;5114274;28;20138;-65
2024/01/21 04:50:53;;;;;;;1999.90;999.90;;;;;;;-4.03;76.38;97530.34;5114495;28;20126;-66
2024/01/21 04:53:20;;;;;;;1999.90;999.90;;;;;;;-4.07;77.01;97531.91;5113492;28;20048;-69
2024/01/21 04:55:47;;;;;;;1999.90;999.90;;;;;;;-4.07;77.23;97540.47;5114435;28;20051;-66
2024/01/21 04:58:15;;;;;;;1999.90;999.90;;;;;;;-4.01;77.32;97541.53;5114369;28;20098;-66
2024/01/21 05:00:42;;;;;;;1999.90;999.90;;;;;;;-4.02;76.46;97544.88;5114123;28;20052;-64
2024/01/21 05:03:09;;;;;;;1999.90;999.90;;;;;;;-4.14;76.78;97546.19;5114250;28;20051;-66
2024/01/21 05:05:36;;;;;;;1999.90;999.90;;;;;;;-4.12;77.11;97546.22;5113903;28;20508;-68
2024/01/21 05:08:04;;;;;;;1999.90;999.90;;;;;;;-4.03;76.47;97549.13;5113942;28;20551;-65
2024/01/21 05:10:31;;;;;;;1999.90;999.90;;;;;;;-4.14;75.17;97552.97;5113999;28;20112;-67
2024/01/21 05:12:58;;;;;;;1999.90;999.90;;;;;;;-4.18;75.01;97557.97;5113991;28;20047;-66
2024/01/21 05:15:27;;;;;;;1999.90;999.90;;;;;;;-4.24;74.43;97562.84;5113678;28;20112;-68
2024/01/21 05:17:56;;;;;;;1999.90;999.90;;;;;;;-4.35;74.14;97564.16;5113728;28;20063;-66
2024/01/21 05:20:23;;;;;;;1999.90;999.90;;;;;;;-4.55;74.74;97559.16;5113835;28;20043;-69
2024/01/21 05:22:50;;;;;;;1999.90;999.90;;;;;;;-4.66;75.32;97551.09;5113764;28;20047;-69
2024/01/21 05:25:18;;;;;;;1999.90;999.90;;;;;;;-4.63;75.05;97555.44;5113707;28;20485;-67
2024/01/21 05:27:46;;;;;;;1999.90;999.90;;;;;;;-4.69;73.87;97566.28;5113641;28;20048;-66
2024/01/21 05:30:16;;;;;;;1999.90;999.90;;;;;;;-4.82;73.58;97568.34;5113537;28;20050;-67
2024/01/21 05:32:46;;;;;;;1999.90;999.90;;;;;;;-4.96;72.76;97569.50;5113546;28;20075;-64
2024/01/21 05:35:13;;;;;;;1999.90;999.90;;;;;;;-5.02;72.54;97576.91;5113576;28;20052;-65
2024/01/21 05:37:40;;;;;;;1999.90;999.90;;;;;;;-5.06;72.54;97573.34;5113766;28;20130;-67
2024/01/21 05:40:10;;;;;;;1999.90;999.90;;;;;;;-5.15;72.43;97573.84;5113504;28;20043;-65
2024/01/21 05:42:40;;;;;;;1999.90;999.90;;;;;;;-5.17;72.42;97575.50;5113858;28;20467;-63
2024/01/21 05:45:09;;;;;;;1999.90;999.90;;;;;;;-5.26;73.25;97573.44;5113505;28;20477;-67
2024/01/21 05:47:36;;;;;;;1999.90;999.90;;;;;;;-5.25;72.99;97574.28;5113374;28;20131;-64
2024/01/21 05:50:05;;;;;;;1999.90;999.90;;;;;;;-5.31;72.91;97580.00;5113572;28;20091;-66
2024/01/21 05:52:33;;;;;;;1999.90;999.90;;;;;;;-5.41;72.94;97581.31;5113405;28;20051;-64
2024/01/21 05:55:01;;;;;;;1999.90;999.90;;;;;;;-5.41;73.91;97580.44;5113237;28;20083;-64
2024/01/21 05:57:28;;;;;;;1999.90;999.90;;;;;;;-5.40;74.41;97588.16;5113305;28;20043;-63
2024/01/21 05:59:55;;;;;;;1999.90;999.90;;;;;;;-5.47;73.42;97593.81;5113301;28;20080;-65
2024/01/21 06:02:23;;;;;;;1999.90;999.90;;;;;;;-5.50;74.65;97592.00;5113273;28;20108;-67
2024/01/21 06:04:54;;;;;;;1999.90;999.90;;;;;;;-5.56;75.18;97593.41;5113280;28;20405;-64
2024/01/21 06:07:23;;;;;;;1999.90;999.90;;;;;;;-5.55;75.59;97597.69;5117769;28;20055;-65
2024/01/21 06:09:51;;;;;;;1999.90;999.90;;;;;;;-5.48;76.02;97603.13;5117363;28;20481;-68
2024/01/21 06:12:17;;;;;;;1999.90;999.90;;;;;;;-5.28;75.92;97600.56;5117222;28;20048;-67
2024/01/21 06:14:46;;;;;;;1999.90;999.90;;;;;;;-5.18;75.33;97608.59;5117324;28;20042;-66
2024/01/21 06:17:13;;;;;;;1999.90;999.90;;;;;;;-5.11;75.01;97608.94;5117164;28;20136;-64
2024/01/21 06:19:41;;;;;;;1999.90;999.90;;;;;;;-5.04;74.55;97612.59;5117228;28;20093;-65
2024/01/21 06:22:08;;;;;;;1999.90;999.90;;;;;;;-4.27;73.27;97618.97;5117066;28;20400;-67
2024/01/21 06:24:38;;;;;;;1999.90;999.90;;;;;;;-2.68;68.84;97629.56;5117019;28;20266;-67
2024/01/21 06:27:06;;;;;;;1999.90;999.90;;;;;;;-1.47;61.43;97635.63;5117200;28;20044;-63
2024/01/21 06:29:34;;;;;;;1999.90;999.90;;;;;;;-0.29;58.70;97640.25;5117104;28;20047;-66
2024/01/21 06:32:01;;;;;;;1999.90;999.90;;;;;;;1.06;54.50;97646.38;5116962;28;20052;-67
2024/01/21 06:34:29;;;;;;;1999.90;999.90;;;;;;;2.30;50.79;97642.22;5117036;28;20051;-64
2024/01/21 06:36:56;;;;;;;1999.90;999.90;;;;;;;3.03;47.19;97655.94;5116927;28;20051;-65
2024/01/21 06:39:23;;;;;;;1999.90;999.90;;;;;;;3.31;46.07;97633.78;5117129;28;20051;-68
2024/01/21 06:41:52;;;;;;;1999.90;999.90;;;;;;;4.00;44.96;97638.56;5116712;28;20043;-66
2024/01/21 06:44:20;;;;;;;1999.90;999.90;;;;;;;4.70;43.56;97639.75;5116854;28;20043;-70
2024/01/21 06:46:47;;;;;;;1999.90;999.90;;;;;;;5.90;40.14;97638.09;5116673;28;20040;-68
2024/01/21 06:49:14;;;;;;;1999.90;999.90;;;;;;;6.42;39.10;97644.03;5116642;28;20054;-65
2024/01/21 06:51:46;;;;;;;1999.90;999.90;;;;;;;7.25;39.06;97647.97;5116319;28;20371;-70
2024/01/21 06:54:14;;;;;;;1999.90;999.90;;;;;;;8.16;36.78;97651.50;5116484;28;20126;-65
2024/01/21 06:56:43;;;;;;;1999.90;999.90;;;;;;;8.87;34.63;97638.53;5116503;28;20109;-68
2024/01/21 06:59:11;;;;;;;1999.90;999.90;;;;;;;9.75;33.93;97645.06;5116433;28;20671;-68
2024/01/21 07:01:39;;;;;;;1999.90;999.90;;;;;;;9.45;32.71;97642.94;5116315;28;20379;-69
2024/01/21 07:04:07;;;;;;;1999.90;999.90;;;;;;;9.51;33.42;97645.44;5116372;28;20079;-66
2024/01/21 07:06:34;;;;;;;1999.90;999.90;;;;;;;9.39;33.16;97649.09;5116282;28;20048;-63
2024/01/21 07:09:01;;;;;;;1999.90;999.90;;;;;;;9.70;32.71;97653.81;5116223;28;20387;-66
2024/01/21 07:11:28;;;;;;;1999.90;999.90;;;;;;;10.72;31.47;97642.38;5116191;28;20127;-64
2024/01/21 07:13:55;;;;;;;1999.90;999.90;;;;;;;11.53;30.67;97651.97;5116266;28;20050;-66
2024/01/21 07:16:24;;;;;;;1999.90;999.90;;;;;;;12.22;28.90;97653.78;5115506;28;20055;-65
2024/01/21 07:18:51;;;;;;;1999.90;999.90;;;;;;;12.15;29.16;97663.56;5116126;28;20047;-67
2024/01/21 07:21:18;;;;;;;1999.90;999.90;;;;;;;12.34;29.47;97663.06;5115970;28;20051;-66
2024/01/21 07:23:47;;;;;;;1999.90;999.90;;;;;;;12.04;29.07;97665.56;5115990;28;20405;-65
2024/01/21 07:26:14;;;;;;;1999.90;999.90;;;;;;;12.68;28.40;97666.50;5115951;28;20463;-67
2024/01/21 07:28:41;;;;;;;1999.90;999.90;;;;;;;12.73;26.92;97665.47;5115829;28;20055;-64
2024/01/21 07:31:08;;;;;;;1999.90;999.90;;;;;;;12.37;27.45;97661.22;5115803;28;20056;-63
2024/01/21 07:33:37;;;;;;;1999.90;999.90;;;;;;;12.08;27.52;97659.38;5115759;28;20044;-66
2024/01/21 07:36:05;;;;;;;1999.90;999.90;;;;;;;13.00;28.02;97668.19;5115805;28;20051;-65
2024/01/21 07:38:32;;;;;;;1999.90;999.90;;;;;;;12.37;27.23;97673.44;5115638;28;20065;-65
2024/01/21 07:40:59;;;;;;;1999.90;999.90;;;;;;;11.65;27.80;97674.41;5115615;28;20048;-66
2024/01/21 07:43:28;;;;;;;1999.90;999.90;;;;;;;10.79;28.15;97668.44;5115494;28;20690;-68
2024/01/21 07:45:55;;;;;;;1999.90;999.90;;;;;;;10.25;30.49;97671.19;5115608;28;20104;-66
2024/01/21 07:48:23;;;;;;;1999.90;999.90;;;;;;;10.40;30.39;97672.66;5115531;28;20079;-64
2024/01/21 07:50:52;;;;;;;1999.90;999.90;;;;;;;10.40;29.48;97675.28;5115533;28;20051;-66
2024/01/21 07:53:20;;;;;;;1999.90;999.90;;;;;;;10.17;29.96;97680.94;5115237;28;20100;-69
2024/01/21 07:55:48;;;;;;;1999.90;999.90;;;;;;;10.72;30.44;97675.56;5115238;28;20486;-65
2024/01/21 07:58:15;;;;;;;1999.90;999.90;;;;;;;10.86;29.51;97670.91;5115310;28;20079;-70
2024/01/21 08:00:43;;;;;;;1999.90;999.90;;;;;;;10.85;30.12;97674.41;5115167;28;20039;-63
2024/01/21 08:03:11;;;;;;;1999.90;999.90;;;;;;;10.56;29.33;97683.72;5115227;28;20504;-62
2024/01/21 08:05:38;;;;;;;1999.90;999.90;;;;;;;10.95;30.81;97682.06;5115110;28;20401;-67
2024/01/21 08:08:08;;;;;;;1999.90;999.90;;;;;;;10.78;29.33;97682.44;5115089;28;20109;-65
2024/01/21 08:10:35;;;;;;;1999.90;999.90;;;;;;;10.81;30.10;97688.44;5115051;28;20055;-69
2024/01/21 08:13:03;;;;;;;1999.90;999.90;;;;;;;10.44;30.50;97697.84;5115028;28;20047;-70
2024/01/21 08:15:30;;;;;;;1999.90;999.90;;;;;;;10.01;28.82;97689.03;5114818;28;20044;-67
2024/01/21 08:17:57;;;;;;;1999.90;999.90;;;;;;;10.44;30.58;97700.47;5115063;28;20075;-69
2024/01/21 08:20:24;;;;;;;1999.90;999.90;;;;;;;10.15;29.44;97699.28;5114981;28;20054;-68
2024/01/21 08:22:51;;;;;;;1999.90;999.90;;;;;;;9.89;29.40;97699.69;5114767;28;20051;-67
2024/01/21 08:25:20;;;;;;;1999.90;999.90;;;;;;;9.27;30.69;97699.75;5114673;28;20047;-68
2024/01/21 08:27:49;;;;;;;1999.90;999.90;;;;;;;9.22;31.27;97698.97;5113836;28;20535;-65
2024/01/21 08:30:16;;;;;;;1999.90;999.90;;;;;;;9.76;31.85;97692.09;5114875;28;20134;-62
2024/01/21 08:32:44;;;;;;;1999.90;999.90;;;;;;;10.18;30.21;97698.34;5114551;28;20047;-62
2024/01/21 08:35:11;;;;;;;1999.90;999.90;;;;;;;10.48;30.19;97701.31;5114485;28;20504;-69
2024/01/21 08:37:40;;;;;;;1999.90;999.90;;;;;;;9.70;30.67;97700.84;5114494;28;20048;-64
2024/01/21 08:40:08;;;;;;;1999.90;999.90;;;;;;;9.70;31.51;97700.84;5114472;28;20055;-65
2024/01/21 08:42:37;;;;;;;1999.90;999.90;;;;;;;9.20;30.14;97698.13;5114328;28;20051;-64
2024/01/21 08:45:06;;;;;;;1999.90;999.90;;;;;;;9.39;33.01;97697.88;5114328;28;20499;-66
2024/01/21 08:47:34;;;;;;;1999.90;999.90;;;;;;;9.39;30.43;97697.88;5114418;28;20065;-64
2024/01/21 08:50:02;;;;;;;1999.90;999.90;;;;;;;9.33;31.18;97698.84;5114170;28;20514;-67
2024/01/21 08:52:30;;;;;;;1999.90;999.90;;;;;;;9.57;31.61;97705.44;5114142;28;20568;-67
2024/01/21 08:54:57;;;;;;;1999.90;999.90;;;;;;;9.43;30.74;97700.44;5114191;28;20104;-64
2024/01/21 08:57:25;;;;;;;1999.90;999.90;;;;;;;9.05;29.82;97700.06;5114206;28;20050;-66
2024/01/21 08:59:54;;;;;;;1999.90;999.90;;;;;;;8.54;30.72;97695.47;5113968;28;20124;-64
2024/01/21 09:02:21;;;;;;;1999.90;999.90;;;;;;;8.32;30.83;97693.94;5114259;28;20047;-62
2024/01/21 09:04:48;;;;;;;1999.90;999.90;;;;;;;7.87;33.52;97698.69;5113873;28;20488;-64
2024/01/21 09:07:16;;;;;;;1999.90;999.90;;;;;;;7.79;34.33;97699.63;5113899;28;20516;-66
2024/01/21 09:09:43;;;;;;;1999.90;999.90;;;;;;;7.71;31.42;97701.44;5113935;28;20052;-63
2024/01/21 09:12:10;;;;;;;1999.90;999.90;;;;;;;7.38;33.76;97688.66;5113873;28;20043;-66
2024/01/21 09:14:38;;;;;;;1999.90;999.90;;;;;;;7.03;34.48;97698.41;5114106;28;20050;-66
2024/01/21 09:17:07;;;;;;;1999.90;999.90;;;;;;;6.69;35.10;97689.00;5113906;28;20104;-66
2024/01/21 09:19:35;;;;;;;1999.90;999.90;;;;;;;6.30;36.55;97688.28;5114191;28;20462;-65
2024/01/21 09:22:03;;;;;;;1999.90;999.90;;;;;;;5.93;36.70;97687.44;5114058;28;20054;-67
2024/01/21 09:24:30;;;;;;;1999.90;999.90;;;;;;;6.10;41.21;97678.78;5113840;28;20055;-68
2024/01/21 09:26:58;;;;;;;1999.90;999.90;;;;;;;5.95;45.65;97674.47;5113804;28;20083;-66
2024/01/21 09:29:25;;;;;;;1999.90;999.90;;;;;;;6.11;45.64;97671.88;5113646;28;20110;-66
2024/01/21 09:31:56;;;;;;;1999.90;999.90;;;;;;;5.99;46.32;97668.38;5113548;28;20108;-66
2024/01/21 09:34:25;;;;;;;1999.90;999.90;;;;;;;5.92;46.19;97672.72;5113562;28;20052;-63
2024/01/21 09:36:53;;;;;;;1999.90;999.90;;;;;;;5.59;47.03;97671.00;5113564;28;20040;-66
2024/01/21 09:39:21;;;;;;;1999.90;999.90;;;;;;;5.72;49.97;97669.28;5113274;28;20401;-67
2024/01/21 09:41:50;;;;;;;1999.90;999.90;;;;;;;5.77;49.99;97671.00;5113517;28;20126;-67
2024/01/21 09:44:19;;;;;;;1999.90;999.90;;;;;;;5.73;51.29;97668.41;5113521;28;20126;-65
2024/01/21 09:46:52;;;;;;;1999.90;999.90;;;;;;;5.67;50.27;97670.16;5113307;28;20409;-66
2024/01/21 09:49:21;;;;;;;1999.90;999.90;;;;;;;5.61;50.84;97667.56;5113469;28;20489;-66
2024/01/21 09:51:51;;;;;;;1999.90;999.90;;;;;;;5.42;51.64;97667.53;5113091;28;20048;-67
2024/01/21 09:54:18;;;;;;;1999.90;999.90;;;;;;;5.22;51.59;97658.88;5113433;28;20044;-67
2024/01/21 09:56:46;;;;;;;1999.90;999.90;;;;;;;5.13;50.33;97662.31;5113299;28;20120;-68
2024/01/21 09:59:14;;;;;;;1999.90;999.90;;;;;;;5.21;51.72;97665.78;5113281;28;20550;-68
2024/01/21 10:01:42;;;;;;;1999.90;999.90;;;;;;;5.25;52.74;97662.34;5113274;28;20044;-67
2024/01/21 10:04:10;;;;;;;1999.90;999.90;;;;;;;5.13;51.42;97670.09;5113257;28;20108;-64
2024/01/21 10:06:38;;;;;;;1999.90;999.90;;;;;;;5.29;51.10;97665.81;5113275;28;20130;-67
2024/01/21 10:09:19;;;;;;;1999.90;999.90;;;;;;;5.41;50.57;97663.22;5113233;28;20410;-66
2024/01/21 10:11:50;;;;;;;1999.90;999.90;;;;;;;5.37;51.67;97661.50;5113336;28;20509;-69
2024/01/21 10:14:18;;;;;;;1999.90;999.90;;;;;;;5.41;52.70;97660.63;5113195;28;20454;-66
2024/01/21 10:16:45;;;;;;;1999.90;999.90;;;;;;;5.60;51.18;97663.22;5113204;28;20048;-65
2024/01/21 10:19:14;;;;;;;1999.90;999.90;;;;;;;5.55;49.67;97658.06;5113139;28;20055;-65
2024/01/21 10:21:41;;;;;;;1999.90;999.90;;;;;;;5.65;48.74;97655.44;5113340;28;20050;-67
2024/01/21 10:24:09;;;;;;;1999.90;999.90;;;;;;;5.91;48.77;97647.63;5113305;28;20054;-66
2024/01/21 10:26:42;;;;;;;1999.90;999.90;;;;;;;6.17;47.78;97645.88;5113098;28;20066;-67
2024/01/21 10:29:09;;;;;;;1999.90;999.90;;;;;;;6.01;41.60;97645.88;5113029;28;20048;-66
2024/01/21 10:31:37;;;;;;;1999.90;999.90;;;;;;;5.79;38.27;97647.66;5112897;28;20083;-68
2024/01/21 10:34:04;;;;;;;1999.90;999.90;;;;;;;5.58;37.46;97651.97;5112948;28;20083;-64
2024/01/21 10:36:35;;;;;;;1999.90;999.90;;;;;;;5.16;39.73;97645.03;5112949;28;20048;-68
2024/01/21 10:39:06;;;;;;;1999.90;999.90;;;;;;;4.83;38.25;97636.34;5112780;28;20048;-68
2024/01/21 10:41:34;;;;;;;;;;;;;;;4.50;38.38;97645.72;5113444;28;20122;-68
2024/01/21 10:44:07;;;;;;;1999.90;999.90;;;;;;;4.33;37.97;97635.31;5112990;28;19920;-66
2024/01/21 10:46:39;;;;;;;1999.90;999.90;;;;;;;4.23;38.28;97637.84;5112899;28;20048;-68
2024/01/21 10:49:09;;;;;;;1999.90;999.90;;;;;;;4.22;38.90;97630.94;5112894;28;20043;-67
2024/01/21 10:51:42;;;;;;;1999.90;999.90;;;;;;;4.11;37.80;97627.41;5114106;28;20116;-65
2024/01/21 10:54:10;;;;;;;1999.90;999.90;;;;;;;4.06;38.00;97627.38;5116750;28;20071;-69
2024/01/21 10:56:40;;;;;;;1999.90;999.90;;;;;;;4.10;39.51;97628.28;5116590;28;20485;-68
2024/01/21 10:59:10;;;;;;;1999.90;999.90;;;;;;;3.98;40.01;97624.78;5116372;28;20101;-69